sensor_id;sensor_type;location;lat;lon;timestamp;pressure;altitude;pressure_sealevel;temperature;humidity
10518;BME280;5307;42.548;22.968;2023-03-19T00:00:19;94355.69;;;0.33;85.31
10518;BME280;5307;42.548;22.968;2023-03-19T00:02:46;94358.72;;;0.28;85.95
10518;BME280;5307;42.548;22.968;2023-03-19T00:05:15;94347.16;;;0.24;86.49
10518;BME280;5307;42.548;22.968;2023-03-19T00:07:43;94342.97;;;0.26;86.23
10518;BME280;5307;42.548;22.968;2023-03-19T00:10:10;94332.31;;;0.37;85.85
10518;BME280;5307;42.548;22.968;2023-03-19T00:12:38;94336.13;;;0.33;85.88
10518;BME280;5307;42.548;22.968;2023-03-19T00:15:07;94342.66;;;0.32;86.82
10518;BME280;5307;42.548;22.968;2023-03-19T00:17:38;94344.88;;;0.26;87.11
10518;BME280;5307;42.548;22.968;2023-03-19T00:20:07;94345.78;;;0.00;87.20
10518;BME280;5307;42.548;22.968;2023-03-19T00:22:34;94344.44;;;0.20;87.32
10518;BME280;5307;42.548;22.968;2023-03-19T00:25:01;94339.88;;;0.24;87.60
10518;BME280;5307;42.548;22.968;2023-03-19T00:27:28;94338.69;;;0.18;87.44
10518;BME280;5307;42.548;22.968;2023-03-19T00:29:54;94335.22;;;0.18;87.33
10518;BME280;5307;42.548;22.968;2023-03-19T00:32:23;94338.81;;;-0.05;87.19
10518;BME280;5307;42.548;22.968;2023-03-19T00:34:50;94332.81;;;-0.28;87.82
10518;BME280;5307;42.548;22.968;2023-03-19T00:37:17;94325.44;;;-0.01;88.51
10518;BME280;5307;42.548;22.968;2023-03-19T00:39:44;94337.94;;;0.21;87.81
10518;BME280;5307;42.548;22.968;2023-03-19T00:42:11;94333.91;;;0.01;87.99
10518;BME280;5307;42.548;22.968;2023-03-19T00:44:38;94322.94;;;0.17;88.03
10518;BME280;5307;42.548;22.968;2023-03-19T00:47:05;94328.16;;;0.03;88.27
10518;BME280;5307;42.548;22.968;2023-03-19T00:49:33;94320.78;;;-0.04;88.35
10518;BME280;5307;42.548;22.968;2023-03-19T00:52:01;94326.03;;;-0.15;88.84
10518;BME280;5307;42.548;22.968;2023-03-19T00:54:27;94318.47;;;-0.09;88.84
10518;BME280;5307;42.548;22.968;2023-03-19T00:56:56;94321.56;;;-0.04;88.77
10518;BME280;5307;42.548;22.968;2023-03-19T00:59:23;94316.94;;;-0.07;89.19
10518;BME280;5307;42.548;22.968;2023-03-19T01:01:50;94310.91;;;0.04;88.35
10518;BME280;5307;42.548;22.968;2023-03-19T01:04:17;94310.31;;;-0.16;88.38
10518;BME280;5307;42.548;22.968;2023-03-19T01:06:46;94308.59;;;0.02;88.78
10518;BME280;5307;42.548;22.968;2023-03-19T01:09:12;94311.53;;;-0.10;88.76
10518;BME280;5307;42.548;22.968;2023-03-19T01:11:39;94305.31;;;-0.18;89.30
10518;BME280;5307;42.548;22.968;2023-03-19T01:14:06;94302.38;;;-0.06;89.31
10518;BME280;5307;42.548;22.968;2023-03-19T01:16:33;94310.09;;;-0.01;88.67
10518;BME280;5307;42.548;22.968;2023-03-19T01:19:00;94299.19;;;-0.18;89.01
10518;BME280;5307;42.548;22.968;2023-03-19T01:21:27;94306.19;;;-0.10;88.77
10518;BME280;5307;42.548;22.968;2023-03-19T01:23:57;94303.72;;;-0.26;89.58
10518;BME280;5307;42.548;22.968;2023-03-19T01:26:24;94308.00;;;-0.18;90.15
10518;BME280;5307;42.548;22.968;2023-03-19T01:28:50;94305.09;;;-0.39;91.04
10518;BME280;5307;42.548;22.968;2023-03-19T01:31:17;94306.53;;;-0.45;91.38
10518;BME280;5307;42.548;22.968;2023-03-19T01:33:44;94301.50;;;-0.17;91.18
10518;BME280;5307;42.548;22.968;2023-03-19T01:36:12;94301.03;;;-0.26;91.01
10518;BME280;5307;42.548;22.968;2023-03-19T01:38:39;94304.38;;;-0.33;91.22
10518;BME280;5307;42.548;22.968;2023-03-19T01:41:07;94300.94;;;-0.33;90.75
10518;BME280;5307;42.548;22.968;2023-03-19T01:43:34;94303.31;;;-0.28;90.95
10518;BME280;5307;42.548;22.968;2023-03-19T01:46:04;94305.16;;;-0.32;90.86
10518;BME280;5307;42.548;22.968;2023-03-19T01:48:37;94297.78;;;-0.42;91.17
10518;BME280;5307;42.548;22.968;2023-03-19T01:51:08;94289.06;;;-0.32;91.23
10518;BME280;5307;42.548;22.968;2023-03-19T01:53:37;94293.59;;;-0.40;91.22
10518;BME280;5307;42.548;22.968;2023-03-19T01:56:11;94297.78;;;-0.42;91.69
10518;BME280;5307;42.548;22.968;2023-03-19T01:58:41;94299.53;;;-0.20;91.18
10518;BME280;5307;42.548;22.968;2023-03-19T02:01:09;94298.25;;;-0.33;91.04
10518;BME280;5307;42.548;22.968;2023-03-19T02:03:37;94290.50;;;-0.42;91.29
10518;BME280;5307;42.548;22.968;2023-03-19T02:06:04;94301.31;;;-0.35;91.46
10518;BME280;5307;42.548;22.968;2023-03-19T02:08:32;94297.50;;;-0.30;91.48
10518;BME280;5307;42.548;22.968;2023-03-19T02:10:59;94302.06;;;-0.34;90.60
10518;BME280;5307;42.548;22.968;2023-03-19T02:13:27;94306.53;;;-0.45;90.58
10518;BME280;5307;42.548;22.968;2023-03-19T02:15:54;94300.03;;;-0.44;90.83
10518;BME280;5307;42.548;22.968;2023-03-19T02:18:23;94302.78;;;-0.71;90.21
10518;BME280;5307;42.548;22.968;2023-03-19T02:20:56;94299.69;;;-0.73;91.18
10518;BME280;5307;42.548;22.968;2023-03-19T02:23:31;94302.78;;;-1.01;91.12
10518;BME280;5307;42.548;22.968;2023-03-19T02:26:05;94309.16;;;-0.82;91.37
10518;BME280;5307;42.548;22.968;2023-03-19T02:28:33;94304.69;;;-0.71;91.03
10518;BME280;5307;42.548;22.968;2023-03-19T02:31:02;94303.38;;;-0.54;90.36
10518;BME280;5307;42.548;22.968;2023-03-19T02:33:29;94314.81;;;-0.57;90.22
10518;BME280;5307;42.548;22.968;2023-03-19T02:35:56;94313.84;;;-0.76;91.49
10518;BME280;5307;42.548;22.968;2023-03-19T02:38:25;94308.50;;;-0.72;91.76
10518;BME280;5307;42.548;22.968;2023-03-19T02:40:56;94317.16;;;-0.56;91.87
10518;BME280;5307;42.548;22.968;2023-03-19T02:43:26;94319.38;;;-0.62;91.89
10518;BME280;5307;42.548;22.968;2023-03-19T02:45:54;94319.03;;;-0.86;92.00
10518;BME280;5307;42.548;22.968;2023-03-19T02:48:21;94315.97;;;-0.88;93.18
10518;BME280;5307;42.548;22.968;2023-03-19T02:50:48;94312.69;;;-0.75;93.67
10518;BME280;5307;42.548;22.968;2023-03-19T02:53:15;94313.75;;;-0.83;94.05
10518;BME280;5307;42.548;22.968;2023-03-19T02:55:42;94309.72;;;-0.70;94.08
10518;BME280;5307;42.548;22.968;2023-03-19T02:58:09;94322.38;;;-0.67;92.82
10518;BME280;5307;42.548;22.968;2023-03-19T03:00:39;94325.19;;;-0.86;92.64
10518;BME280;5307;42.548;22.968;2023-03-19T03:03:06;94313.16;;;-0.69;93.08
10518;BME280;5307;42.548;22.968;2023-03-19T03:05:34;94328.00;;;-0.45;93.11
10518;BME280;5307;42.548;22.968;2023-03-19T03:08:01;94324.59;;;-0.72;92.01
10518;BME280;5307;42.548;22.968;2023-03-19T03:10:29;94323.00;;;-0.77;91.86
10518;BME280;5307;42.548;22.968;2023-03-19T03:12:56;94332.59;;;-0.76;91.85
10518;BME280;5307;42.548;22.968;2023-03-19T03:15:23;94331.63;;;-0.91;91.64
10518;BME280;5307;42.548;22.968;2023-03-19T03:17:51;94335.06;;;-0.94;92.08
10518;BME280;5307;42.548;22.968;2023-03-19T03:20:18;94326.63;;;-0.92;91.84
10518;BME280;5307;42.548;22.968;2023-03-19T03:22:45;94334.69;;;-0.92;91.86
10518;BME280;5307;42.548;22.968;2023-03-19T03:25:13;94333.53;;;-0.91;91.71
10518;BME280;5307;42.548;22.968;2023-03-19T03:27:40;94322.00;;;-0.95;91.83
10518;BME280;5307;42.548;22.968;2023-03-19T03:30:08;94331.47;;;-1.01;91.73
10518;BME280;5307;42.548;22.968;2023-03-19T03:32:36;94330.63;;;-1.09;92.40
10518;BME280;5307;42.548;22.968;2023-03-19T03:35:05;94332.03;;;-0.88;93.15
10518;BME280;5307;42.548;22.968;2023-03-19T03:37:32;94335.31;;;-1.02;92.83
10518;BME280;5307;42.548;22.968;2023-03-19T03:39:59;94337.56;;;-1.04;93.22
10518;BME280;5307;42.548;22.968;2023-03-19T03:42:31;94340.09;;;-1.15;94.08
10518;BME280;5307;42.548;22.968;2023-03-19T03:44:57;94342.94;;;-1.04;94.53
10518;BME280;5307;42.548;22.968;2023-03-19T03:47:24;94334.94;;;-1.01;94.50
10518;BME280;5307;42.548;22.968;2023-03-19T03:49:51;94342.13;;;-1.08;93.56
10518;BME280;5307;42.548;22.968;2023-03-19T03:52:19;94344.88;;;-1.01;93.33
10518;BME280;5307;42.548;22.968;2023-03-19T03:54:47;94345.56;;;-1.08;93.31
10518;BME280;5307;42.548;22.968;2023-03-19T03:57:13;94334.06;;;-1.08;92.91
10518;BME280;5307;42.548;22.968;2023-03-19T03:59:40;94340.16;;;-1.11;93.21
10518;BME280;5307;42.548;22.968;2023-03-19T04:02:07;94344.63;;;-1.19;93.50
10518;BME280;5307;42.548;22.968;2023-03-19T04:04:34;94349.66;;;-1.14;93.33
10518;BME280;5307;42.548;22.968;2023-03-19T04:07:00;94342.88;;;-1.34;94.19
10518;BME280;5307;42.548;22.968;2023-03-19T04:09:29;94343.28;;;-1.32;94.52
10518;BME280;5307;42.548;22.968;2023-03-19T04:11:55;94342.13;;;-1.31;94.99
10518;BME280;5307;42.548;22.968;2023-03-19T04:14:22;94340.38;;;-1.46;96.14
10518;BME280;5307;42.548;22.968;2023-03-19T04:16:49;94345.50;;;-1.38;95.96
10518;BME280;5307;42.548;22.968;2023-03-19T04:19:16;94342.69;;;-1.45;95.98
10518;BME280;5307;42.548;22.968;2023-03-19T04:21:43;94344.09;;;-1.28;95.97
10518;BME280;5307;42.548;22.968;2023-03-19T04:24:11;94348.09;;;-1.18;95.42
10518;BME280;5307;42.548;22.968;2023-03-19T04:26:40;94346.81;;;-1.51;94.97
10518;BME280;5307;42.548;22.968;2023-03-19T04:29:07;94347.28;;;-1.45;95.22
10518;BME280;5307;42.548;22.968;2023-03-19T04:31:34;94344.72;;;-1.38;94.88
10518;BME280;5307;42.548;22.968;2023-03-19T04:34:01;94359.97;;;-1.16;93.81
10518;BME280;5307;42.548;22.968;2023-03-19T04:36:27;94357.50;;;-1.28;94.41
10518;BME280;5307;42.548;22.968;2023-03-19T04:38:55;94359.97;;;-1.16;94.37
10518;BME280;5307;42.548;22.968;2023-03-19T04:41:22;94354.41;;;-1.30;93.49
10518;BME280;5307;42.548;22.968;2023-03-19T04:43:50;94353.06;;;-1.17;93.61
10518;BME280;5307;42.548;22.968;2023-03-19T04:46:17;94344.78;;;-1.08;93.25
10518;BME280;5307;42.548;22.968;2023-03-19T04:48:44;94357.47;;;-1.05;93.51
10518;BME280;5307;42.548;22.968;2023-03-19T04:51:10;94358.00;;;-0.96;92.22
10518;BME280;5307;42.548;22.968;2023-03-19T04:53:37;94338.63;;;-1.12;92.70
10518;BME280;5307;42.548;22.968;2023-03-19T04:56:05;94338.91;;;-1.17;93.39
10518;BME280;5307;42.548;22.968;2023-03-19T04:58:32;94346.00;;;-1.29;94.30
10518;BME280;5307;42.548;22.968;2023-03-19T05:01:00;94347.75;;;-1.13;93.81
10518;BME280;5307;42.548;22.968;2023-03-19T05:03:30;94358.03;;;-1.19;93.40
10518;BME280;5307;42.548;22.968;2023-03-19T05:05:57;94349.38;;;-1.09;93.64
10518;BME280;5307;42.548;22.968;2023-03-19T05:08:23;94350.19;;;-1.05;93.62
10518;BME280;5307;42.548;22.968;2023-03-19T05:10:50;94339.19;;;-1.26;94.83
10518;BME280;5307;42.548;22.968;2023-03-19T05:13:17;94358.91;;;-1.11;94.56
10518;BME280;5307;42.548;22.968;2023-03-19T05:15:44;94350.09;;;-0.85;93.48
10518;BME280;5307;42.548;22.968;2023-03-19T05:18:13;94350.00;;;-0.93;92.65
10518;BME280;5307;42.548;22.968;2023-03-19T05:20:41;94351.09;;;-0.97;92.00
10518;BME280;5307;42.548;22.968;2023-03-19T05:23:08;94359.75;;;-1.07;91.83
10518;BME280;5307;42.548;22.968;2023-03-19T05:25:35;94360.97;;;-1.01;91.96
10518;BME280;5307;42.548;22.968;2023-03-19T05:28:03;94361.66;;;-1.08;91.91
10518;BME280;5307;42.548;22.968;2023-03-19T05:30:30;94355.00;;;-0.91;92.13
10518;BME280;5307;42.548;22.968;2023-03-19T05:32:57;94360.81;;;-0.85;90.57
10518;BME280;5307;42.548;22.968;2023-03-19T05:35:27;94360.75;;;-0.89;90.60
10518;BME280;5307;42.548;22.968;2023-03-19T05:37:54;94357.50;;;-0.75;89.98
10518;BME280;5307;42.548;22.968;2023-03-19T05:40:22;94356.22;;;-0.85;90.41
10518;BME280;5307;42.548;22.968;2023-03-19T05:42:49;94351.88;;;-0.67;90.62
10518;BME280;5307;42.548;22.968;2023-03-19T05:45:16;94346.56;;;-0.63;90.74
10518;BME280;5307;42.548;22.968;2023-03-19T05:47:45;94347.69;;;-0.64;91.38
10518;BME280;5307;42.548;22.968;2023-03-19T05:50:12;94357.41;;;-0.22;91.52
10518;BME280;5307;42.548;22.968;2023-03-19T05:52:40;94348.47;;;0.41;90.15
10518;BME280;5307;42.548;22.968;2023-03-19T05:55:07;94351.75;;;0.64;87.35
10518;BME280;5307;42.548;22.968;2023-03-19T05:57:35;94358.47;;;0.88;86.00
10518;BME280;5307;42.548;22.968;2023-03-19T06:00:03;94358.38;;;1.29;84.33
10518;BME280;5307;42.548;22.968;2023-03-19T06:02:31;94352.63;;;1.34;82.23
10518;BME280;5307;42.548;22.968;2023-03-19T06:04:58;94358.16;;;1.55;80.58
10518;BME280;5307;42.548;22.968;2023-03-19T06:07:24;94349.31;;;1.62;79.30
10518;BME280;5307;42.548;22.968;2023-03-19T06:09:52;94349.72;;;1.64;78.99
10518;BME280;5307;42.548;22.968;2023-03-19T06:12:19;94350.97;;;1.88;79.13
10518;BME280;5307;42.548;22.968;2023-03-19T06:14:46;94352.19;;;2.08;77.84
10518;BME280;5307;42.548;22.968;2023-03-19T06:17:13;94342.63;;;2.35;77.45
10518;BME280;5307;42.548;22.968;2023-03-19T06:19:40;94355.69;;;2.23;76.75
10518;BME280;5307;42.548;22.968;2023-03-19T06:22:07;94353.41;;;2.35;75.81
10518;BME280;5307;42.548;22.968;2023-03-19T06:24:34;94356.84;;;2.15;75.77
10518;BME280;5307;42.548;22.968;2023-03-19T06:27:02;94353.81;;;2.48;75.74
10518;BME280;5307;42.548;22.968;2023-03-19T06:29:29;94348.47;;;3.02;73.97
10518;BME280;5307;42.548;22.968;2023-03-19T06:31:56;94353.09;;;2.83;74.28
10518;BME280;5307;42.548;22.968;2023-03-19T06:34:23;94356.56;;;3.02;73.50
10518;BME280;5307;42.548;22.968;2023-03-19T06:36:50;94356.94;;;3.14;73.21
10518;BME280;5307;42.548;22.968;2023-03-19T06:39:18;94349.50;;;3.72;71.54
10518;BME280;5307;42.548;22.968;2023-03-19T06:41:45;94359.63;;;3.18;70.12
10518;BME280;5307;42.548;22.968;2023-03-19T06:44:13;94354.56;;;3.38;71.13
10518;BME280;5307;42.548;22.968;2023-03-19T06:46:40;94356.47;;;3.58;69.33
10518;BME280;5307;42.548;22.968;2023-03-19T06:49:07;94356.06;;;3.71;69.30
10518;BME280;5307;42.548;22.968;2023-03-19T06:51:34;94360.25;;;3.86;67.68
10518;BME280;5307;42.548;22.968;2023-03-19T06:54:02;94361.38;;;3.92;67.71
10518;BME280;5307;42.548;22.968;2023-03-19T06:56:29;94362.50;;;4.02;67.50
10518;BME280;5307;42.548;22.968;2023-03-19T06:58:56;94359.94;;;5.05;64.63
10518;BME280;5307;42.548;22.968;2023-03-19T07:01:24;94365.31;;;4.57;64.42
10518;BME280;5307;42.548;22.968;2023-03-19T07:03:51;94353.91;;;5.35;61.97
10518;BME280;5307;42.548;22.968;2023-03-19T07:06:17;94354.34;;;5.27;63.39
10518;BME280;5307;42.548;22.968;2023-03-19T07:08:44;94357.19;;;5.54;62.00
10518;BME280;5307;42.548;22.968;2023-03-19T07:11:12;94358.34;;;5.94;61.34
10518;BME280;5307;42.548;22.968;2023-03-19T07:13:40;94354.44;;;5.57;61.95
10518;BME280;5307;42.548;22.968;2023-03-19T07:16:07;94351.63;;;5.68;61.50
10518;BME280;5307;42.548;22.968;2023-03-19T07:18:35;94353.16;;;5.69;62.67
10518;BME280;5307;42.548;22.968;2023-03-19T07:21:03;94346.78;;;6.78;60.08
10518;BME280;5307;42.548;22.968;2023-03-19T07:23:30;94349.91;;;6.49;60.74
10518;BME280;5307;42.548;22.968;2023-03-19T07:25:57;94350.28;;;6.21;61.69
10518;BME280;5307;42.548;22.968;2023-03-19T07:28:24;94347.84;;;6.57;60.23
10518;BME280;5307;42.548;22.968;2023-03-19T07:30:51;94336.94;;;6.34;59.42
10518;BME280;5307;42.548;22.968;2023-03-19T07:33:18;94351.69;;;6.60;59.13
10518;BME280;5307;42.548;22.968;2023-03-19T07:35:46;94345.94;;;7.08;57.78
10518;BME280;5307;42.548;22.968;2023-03-19T07:38:13;94353.91;;;7.85;55.70
10518;BME280;5307;42.548;22.968;2023-03-19T07:40:40;94352.31;;;6.71;56.29
10518;BME280;5307;42.548;22.968;2023-03-19T07:43:07;94350.84;;;8.23;53.72
10518;BME280;5307;42.548;22.968;2023-03-19T07:45:34;94347.19;;;7.27;54.84
10518;BME280;5307;42.548;22.968;2023-03-19T07:48:01;94362.03;;;6.68;54.98
10518;BME280;5307;42.548;22.968;2023-03-19T07:50:28;94353.44;;;7.24;54.17
10518;BME280;5307;42.548;22.968;2023-03-19T07:52:56;94347.84;;;7.11;54.98
10518;BME280;5307;42.548;22.968;2023-03-19T07:55:24;94333.41;;;8.76;53.39
10518;BME280;5307;42.548;22.968;2023-03-19T07:57:50;94342.13;;;7.72;53.07
10518;BME280;5307;42.548;22.968;2023-03-19T08:00:18;94345.19;;;8.14;52.77
10518;BME280;5307;42.548;22.968;2023-03-19T08:02:45;94350.16;;;7.99;52.46
10518;BME280;5307;42.548;22.968;2023-03-19T08:05:12;94349.75;;;9.74;49.93
10518;BME280;5307;42.548;22.968;2023-03-19T08:07:40;94355.34;;;8.69;52.21
10518;BME280;5307;42.548;22.968;2023-03-19T08:10:10;94335.66;;;8.98;50.63
10518;BME280;5307;42.548;22.968;2023-03-19T08:12:37;94351.81;;;8.88;52.18
10518;BME280;5307;42.548;22.968;2023-03-19T08:15:08;94346.75;;;7.95;52.47
10518;BME280;5307;42.548;22.968;2023-03-19T08:17:36;94345.91;;;9.55;50.54
10518;BME280;5307;42.548;22.968;2023-03-19T08:20:05;94334.28;;;8.73;50.15
10518;BME280;5307;42.548;22.968;2023-03-19T08:22:33;94346.50;;;9.79;49.04
10518;BME280;5307;42.548;22.968;2023-03-19T08:25:00;94342.66;;;9.31;48.52
10518;BME280;5307;42.548;22.968;2023-03-19T08:27:28;94340.56;;;8.86;49.24
10518;BME280;5307;42.548;22.968;2023-03-19T08:29:56;94337.41;;;8.72;47.81
10518;BME280;5307;42.548;22.968;2023-03-19T08:32:25;94344.09;;;9.81;45.21
10518;BME280;5307;42.548;22.968;2023-03-19T08:34:52;94338.13;;;9.86;47.92
10518;BME280;5307;42.548;22.968;2023-03-19T08:37:20;94341.75;;;9.96;46.12
10518;BME280;5307;42.548;22.968;2023-03-19T08:39:49;94340.31;;;10.62;44.76
10518;BME280;5307;42.548;22.968;2023-03-19T08:42:15;94336.97;;;9.55;43.82
10518;BME280;5307;42.548;22.968;2023-03-19T08:44:44;94333.88;;;9.23;42.64
10518;BME280;5307;42.548;22.968;2023-03-19T08:47:11;94340.84;;;10.69;43.66
10518;BME280;5307;42.548;22.968;2023-03-19T08:49:37;94331.53;;;10.00;43.70
10518;BME280;5307;42.548;22.968;2023-03-19T08:52:04;94329.72;;;9.64;44.38
10518;BME280;5307;42.548;22.968;2023-03-19T08:54:32;94328.41;;;10.81;44.89
10518;BME280;5307;42.548;22.968;2023-03-19T08:56:59;94316.94;;;10.86;42.86
10518;BME280;5307;42.548;22.968;2023-03-19T08:59:26;94310.53;;;11.87;40.78
10518;BME280;5307;42.548;22.968;2023-03-19T09:01:54;94303.34;;;11.68;40.00
10518;BME280;5307;42.548;22.968;2023-03-19T09:04:21;94313.34;;;10.77;39.36
10518;BME280;5307;42.548;22.968;2023-03-19T09:06:48;94314.88;;;10.78;39.51
10518;BME280;5307;42.548;22.968;2023-03-19T09:09:16;94316.38;;;10.66;38.39
10518;BME280;5307;42.548;22.968;2023-03-19T09:11:43;94316.06;;;11.15;38.56
10518;BME280;5307;42.548;22.968;2023-03-19T09:14:10;94300.66;;;12.65;36.91
10518;BME280;5307;42.548;22.968;2023-03-19T09:16:37;94305.38;;;11.89;38.26
10518;BME280;5307;42.548;22.968;2023-03-19T09:19:06;94300.44;;;11.97;39.13
10518;BME280;5307;42.548;22.968;2023-03-19T09:21:34;94292.91;;;11.76;39.72
10518;BME280;5307;42.548;22.968;2023-03-19T09:24:01;94300.09;;;12.17;39.28
10518;BME280;5307;42.548;22.968;2023-03-19T09:26:50;94286.06;;;12.99;35.85
10518;BME280;5307;42.548;22.968;2023-03-19T09:29:17;94290.94;;;12.11;33.76
10518;BME280;5307;42.548;22.968;2023-03-19T09:31:44;94295.19;;;11.90;34.42
10518;BME280;5307;42.548;22.968;2023-03-19T09:34:12;94287.81;;;12.00;34.17
10518;BME280;5307;42.548;22.968;2023-03-19T09:36:39;94283.88;;;12.54;31.54
10518;BME280;5307;42.548;22.968;2023-03-19T09:39:08;94281.63;;;12.08;33.95
10518;BME280;5307;42.548;22.968;2023-03-19T09:41:40;94278.16;;;13.10;33.47
10518;BME280;5307;42.548;22.968;2023-03-19T09:44:14;94274.34;;;12.36;33.97
10518;BME280;5307;42.548;22.968;2023-03-19T09:46:44;94278.88;;;12.61;33.83
10518;BME280;5307;42.548;22.968;2023-03-19T09:49:20;94274.75;;;13.64;36.16
10518;BME280;5307;42.548;22.968;2023-03-19T09:51:51;94273.09;;;12.28;34.78
10518;BME280;5307;42.548;22.968;2023-03-19T09:54:26;94272.66;;;12.61;35.35
10518;BME280;5307;42.548;22.968;2023-03-19T09:56:54;94271.44;;;12.62;33.39
10518;BME280;5307;42.548;22.968;2023-03-19T09:59:23;94270.66;;;13.01;34.48
10518;BME280;5307;42.548;22.968;2023-03-19T10:01:58;94272.63;;;13.59;33.35
10518;BME280;5307;42.548;22.968;2023-03-19T10:04:51;94265.16;;;13.78;34.34
10518;BME280;5307;42.548;22.968;2023-03-19T10:07:32;94263.94;;;12.93;34.05
10518;BME280;5307;42.548;22.968;2023-03-19T10:10:13;94265.56;;;13.22;33.51
10518;BME280;5307;42.548;22.968;2023-03-19T10:12:52;94258.22;;;13.10;33.57
10518;BME280;5307;42.548;22.968;2023-03-19T10:15:27;94261.28;;;13.21;33.64
10518;BME280;5307;42.548;22.968;2023-03-19T10:17:58;94254.00;;;13.27;33.74
10518;BME280;5307;42.548;22.968;2023-03-19T10:20:41;94247.03;;;13.53;32.92
10518;BME280;5307;42.548;22.968;2023-03-19T10:23:22;94236.44;;;14.16;35.14
10518;BME280;5307;42.548;22.968;2023-03-19T10:25:51;94229.94;;;13.49;33.21
10518;BME280;5307;42.548;22.968;2023-03-19T10:28:20;94222.13;;;12.31;34.11
10518;BME280;5307;42.548;22.968;2023-03-19T10:30:52;94225.34;;;13.37;33.66
10518;BME280;5307;42.548;22.968;2023-03-19T10:33:22;94226.44;;;13.58;33.69
10518;BME280;5307;42.548;22.968;2023-03-19T10:35:56;94221.56;;;13.62;32.01
10518;BME280;5307;42.548;22.968;2023-03-19T10:38:25;94213.16;;;13.84;34.43
10518;BME280;5307;42.548;22.968;2023-03-19T10:41:15;94215.94;;;13.65;32.39
10518;BME280;5307;42.548;22.968;2023-03-19T10:43:51;94214.97;;;13.96;32.61
10518;BME280;5307;42.548;22.968;2023-03-19T10:46:18;94209.75;;;14.16;34.94
10518;BME280;5307;42.548;22.968;2023-03-19T10:48:46;94205.28;;;14.28;35.39
10518;BME280;5307;42.548;22.968;2023-03-19T10:51:15;94201.25;;;13.96;31.83
10518;BME280;5307;42.548;22.968;2023-03-19T10:53:46;94197.59;;;13.90;31.99
10518;BME280;5307;42.548;22.968;2023-03-19T10:56:18;94194.19;;;13.03;32.42
10518;BME280;5307;42.548;22.968;2023-03-19T10:59:00;94187.69;;;13.74;33.33
10518;BME280;5307;42.548;22.968;2023-03-19T11:01:31;94184.78;;;13.87;33.79
10518;BME280;5307;42.548;22.968;2023-03-19T11:04:00;94179.47;;;13.47;33.00
10518;BME280;5307;42.548;22.968;2023-03-19T11:06:32;94169.84;;;13.88;32.37
10518;BME280;5307;42.548;22.968;2023-03-19T11:09:00;94176.75;;;13.47;31.83
10518;BME280;5307;42.548;22.968;2023-03-19T11:11:33;94169.75;;;14.24;33.27
10518;BME280;5307;42.548;22.968;2023-03-19T11:14:14;94158.47;;;14.65;33.42
10518;BME280;5307;42.548;22.968;2023-03-19T11:16:57;94165.38;;;14.09;33.55
10518;BME280;5307;42.548;22.968;2023-03-19T11:19:30;94155.25;;;13.54;32.24
10518;BME280;5307;42.548;22.968;2023-03-19T11:22:12;94152.28;;;14.46;33.36
10518;BME280;5307;42.548;22.968;2023-03-19T11:24:42;94146.47;;;14.53;34.79
10518;BME280;5307;42.548;22.968;2023-03-19T11:27:13;94133.94;;;14.76;34.30
10518;BME280;5307;42.548;22.968;2023-03-19T11:29:41;94131.97;;;14.52;34.13
10518;BME280;5307;42.548;22.968;2023-03-19T11:32:21;94141.06;;;14.25;33.77
10518;BME280;5307;42.548;22.968;2023-03-19T11:34:55;94139.16;;;14.50;34.65
10518;BME280;5307;42.548;22.968;2023-03-19T11:37:30;94125.59;;;14.70;34.15
10518;BME280;5307;42.548;22.968;2023-03-19T11:40:08;94124.88;;;14.27;33.94
10518;BME280;5307;42.548;22.968;2023-03-19T11:42:52;94113.69;;;13.98;33.88
10518;BME280;5307;42.548;22.968;2023-03-19T11:45:29;94103.53;;;14.22;34.83
10518;BME280;5307;42.548;22.968;2023-03-19T11:48:13;94101.75;;;14.43;34.50
10518;BME280;5307;42.548;22.968;2023-03-19T11:50:48;94103.16;;;14.63;35.67
10518;BME280;5307;42.548;22.968;2023-03-19T11:53:25;94095.06;;;14.02;34.96
10518;BME280;5307;42.548;22.968;2023-03-19T11:55:59;94090.09;;;14.24;36.34
10518;BME280;5307;42.548;22.968;2023-03-19T11:58:44;94086.63;;;14.48;36.18
10518;BME280;5307;42.548;22.968;2023-03-19T12:01:22;94080.88;;;14.37;35.10
10518;BME280;5307;42.548;22.968;2023-03-19T12:07:09;94081.00;;;13.67;33.96
10518;BME280;5307;42.548;22.968;2023-03-19T12:09:47;94080.09;;;14.03;35.18
10518;BME280;5307;42.548;22.968;2023-03-19T12:12:23;94081.31;;;14.02;34.60
10518;BME280;5307;42.548;22.968;2023-03-19T12:15:04;94085.41;;;14.07;34.25
10518;BME280;5307;42.548;22.968;2023-03-19T12:17:39;94072.91;;;14.06;35.00
10518;BME280;5307;42.548;22.968;2023-03-19T12:20:22;94070.66;;;14.61;34.01
10518;BME280;5307;42.548;22.968;2023-03-19T12:23:01;94064.75;;;14.77;36.81
10518;BME280;5307;42.548;22.968;2023-03-19T12:25:47;94070.31;;;14.11;33.41
10518;BME280;5307;42.548;22.968;2023-03-19T12:28:23;94073.06;;;14.35;34.34
10518;BME280;5307;42.548;22.968;2023-03-19T12:31:03;94066.16;;;13.83;33.09
10518;BME280;5307;42.548;22.968;2023-03-19T12:33:42;94063.50;;;13.98;34.02
10518;BME280;5307;42.548;22.968;2023-03-19T12:36:15;94063.53;;;14.21;33.06
10518;BME280;5307;42.548;22.968;2023-03-19T12:38:47;94057.53;;;13.99;33.24
10518;BME280;5307;42.548;22.968;2023-03-19T12:41:19;94055.66;;;14.05;34.54
10518;BME280;5307;42.548;22.968;2023-03-19T12:43:52;94049.19;;;13.93;34.43
10518;BME280;5307;42.548;22.968;2023-03-19T12:46:25;94049.34;;;14.23;34.39
10518;BME280;5307;42.548;22.968;2023-03-19T12:48:57;94039.19;;;14.05;34.00
10518;BME280;5307;42.548;22.968;2023-03-19T12:51:28;94042.41;;;14.37;35.41
10518;BME280;5307;42.548;22.968;2023-03-19T12:54:00;94041.03;;;14.08;36.20
10518;BME280;5307;42.548;22.968;2023-03-19T12:56:32;94029.03;;;14.20;33.92
10518;BME280;5307;42.548;22.968;2023-03-19T12:59:10;94027.00;;;14.30;34.12
10518;BME280;5307;42.548;22.968;2023-03-19T13:01:43;94028.72;;;14.27;34.33
10518;BME280;5307;42.548;22.968;2023-03-19T13:04:15;94021.13;;;14.22;34.77
10518;BME280;5307;42.548;22.968;2023-03-19T13:06:47;94028.94;;;14.15;34.23
10518;BME280;5307;42.548;22.968;2023-03-19T13:09:22;94024.84;;;14.10;34.49
10518;BME280;5307;42.548;22.968;2023-03-19T13:11:54;94023.66;;;14.02;33.52
10518;BME280;5307;42.548;22.968;2023-03-19T13:14:28;94019.00;;;14.17;34.55
10518;BME280;5307;42.548;22.968;2023-03-19T13:17:04;94024.31;;;14.54;35.37